createdAt,value
2019-01-25T00:01:11.889Z,-6.00
2019-01-25T00:03:41.671Z,-6.00
2019-01-25T00:06:12.130Z,-6.00
2019-01-25T00:08:41.952Z,-6.00
2019-01-25T00:11:11.408Z,-6.00
2019-01-25T00:13:41.308Z,-6.00
2019-01-25T00:16:10.742Z,-6.00
2019-01-25T00:18:41.014Z,-6.00
2019-01-25T00:21:10.458Z,-6.00
2019-01-25T00:23:40.409Z,-5.90
2019-01-25T00:26:10.935Z,-5.90
2019-01-25T00:28:43.527Z,-6.00
2019-01-25T00:31:13.021Z,-6.00
2019-01-25T00:33:42.702Z,-5.90
2019-01-25T00:36:12.186Z,-5.90
2019-01-25T00:38:41.665Z,-5.90
2019-01-25T00:41:11.514Z,-5.90
2019-01-25T00:43:40.960Z,-5.90
2019-01-25T00:46:10.418Z,-5.90
2019-01-25T00:48:40.064Z,-5.80
2019-01-25T00:51:09.590Z,-5.90
2019-01-25T00:53:39.116Z,-5.90
2019-01-25T00:56:08.804Z,-5.80
2019-01-25T00:58:38.330Z,-5.80
2019-01-25T01:01:07.754Z,-5.80
2019-01-25T01:03:37.501Z,-5.80
2019-01-25T01:06:07.250Z,-5.80
2019-01-25T01:08:36.840Z,-5.80
2019-01-25T01:11:06.297Z,-5.70
2019-01-25T01:13:35.752Z,-5.80
2019-01-25T01:16:05.446Z,-5.80
2019-01-25T01:18:34.889Z,-5.80
2019-01-25T01:21:04.434Z,-5.80
2019-01-25T01:23:34.182Z,-5.90
2019-01-25T01:26:03.630Z,-6.00
2019-01-25T01:28:33.073Z,-6.00
2019-01-25T01:31:02.983Z,-6.00
2019-01-25T01:33:32.449Z,-6.00
2019-01-25T01:36:02.006Z,-6.10
2019-01-25T01:38:31.581Z,-6.10
2019-01-25T01:41:00.939Z,-6.10
2019-01-25T01:43:30.407Z,-6.10
2019-01-25T01:46:00.162Z,-6.10
2019-01-25T01:48:29.579Z,-6.10
2019-01-25T01:50:59.069Z,-6.10
2019-01-25T01:53:28.746Z,-6.10
2019-01-25T01:55:58.214Z,-6.10
2019-01-25T01:58:27.725Z,-6.10
2019-01-25T02:00:57.349Z,-6.10
2019-01-25T02:03:27.040Z,-6.00
2019-01-25T02:05:56.419Z,-6.10
2019-01-25T02:08:25.948Z,-6.10
2019-01-25T02:10:55.411Z,-6.10
2019-01-25T02:13:24.919Z,-6.10
2019-01-25T02:15:54.961Z,-6.10
2019-01-25T02:18:24.362Z,-6.10
2019-01-25T02:20:54.204Z,-6.10
2019-01-25T02:23:23.622Z,-6.10
2019-01-25T02:25:53.089Z,-6.10
2019-01-25T02:28:22.582Z,-6.20
2019-01-25T02:30:52.001Z,-6.20
2019-01-25T02:33:21.437Z,-6.10
2019-01-25T02:35:51.177Z,-6.20
2019-01-25T02:38:20.657Z,-6.10
2019-01-25T02:40:50.079Z,-6.10
2019-01-25T02:43:19.799Z,-6.10
2019-01-25T02:45:49.243Z,-6.10
2019-01-25T02:48:18.692Z,-6.20
2019-01-25T02:50:48.100Z,-6.20
2019-01-25T02:53:17.831Z,-6.20
2019-01-25T02:55:47.271Z,-6.20
2019-01-25T02:58:16.717Z,-6.10
2019-01-25T03:00:46.404Z,-6.20
2019-01-25T03:03:15.856Z,-6.20
2019-01-25T03:05:45.281Z,-6.20
2019-01-25T03:08:14.941Z,-6.20
2019-01-25T03:10:47.297Z,-6.20
2019-01-25T03:13:15.463Z,-6.20
2019-01-25T03:15:44.970Z,-6.20
2019-01-25T03:18:14.399Z,-6.20
2019-01-25T03:20:44.232Z,-6.10
2019-01-25T03:23:13.683Z,-6.10
2019-01-25T03:25:43.525Z,-6.20
2019-01-25T03:28:12.974Z,-6.20
2019-01-25T03:30:42.411Z,-6.20
2019-01-25T03:33:12.021Z,-6.10
2019-01-25T03:35:41.622Z,-6.20
2019-01-25T03:38:11.099Z,-6.20
2019-01-25T03:40:40.703Z,-6.20
2019-01-25T03:43:10.216Z,-6.20
2019-01-25T03:45:39.674Z,-6.20
2019-01-25T03:48:09.411Z,-6.20
2019-01-25T03:50:38.877Z,-6.20
2019-01-25T03:53:08.378Z,-6.10
2019-01-25T03:55:38.203Z,-6.20
2019-01-25T03:58:07.620Z,-6.20
2019-01-25T04:00:37.333Z,-6.20
2019-01-25T04:03:06.766Z,-6.20
2019-01-25T04:05:36.272Z,-6.30
2019-01-25T04:08:06.141Z,-6.20
2019-01-25T04:10:35.615Z,-6.30
2019-01-25T04:13:05.280Z,-6.20
2019-01-25T04:15:35.550Z,-6.20
2019-01-25T04:18:05.390Z,-6.30
2019-01-25T04:20:34.838Z,-6.20
2019-01-25T04:23:04.596Z,-6.20
2019-01-25T04:25:34.042Z,-6.20
2019-01-25T04:28:03.826Z,-6.20
2019-01-25T04:30:33.372Z,-6.20
2019-01-25T04:33:03.208Z,-6.20
2019-01-25T04:35:32.663Z,-6.10
2019-01-25T04:38:02.210Z,-6.20
2019-01-25T04:40:31.792Z,-6.20
2019-01-25T04:43:01.244Z,-6.20
2019-01-25T04:45:30.723Z,-6.10
2019-01-25T04:48:00.195Z,-6.20
2019-01-25T04:50:29.762Z,-6.10
2019-01-25T04:52:59.226Z,-6.10
2019-01-25T04:55:33.503Z,-6.10
2019-01-25T04:58:11.520Z,-6.20
2019-01-25T05:00:41.629Z,-6.10
2019-01-25T05:03:11.074Z,-6.20
2019-01-25T05:05:40.899Z,-6.20
2019-01-25T05:08:16.227Z,-6.20
2019-01-25T05:10:45.910Z,-6.10
2019-01-25T05:13:15.415Z,-6.10
2019-01-25T05:15:44.840Z,-6.20
2019-01-25T05:18:15.506Z,-6.10
2019-01-25T05:20:45.096Z,-6.10
2019-01-25T05:23:14.967Z,-6.10
2019-01-25T05:25:44.555Z,-6.10
2019-01-25T05:28:15.758Z,-6.10
2019-01-25T05:31:02.694Z,-6.10
2019-01-25T05:33:32.291Z,-6.00
2019-01-25T05:36:01.961Z,-6.10
2019-01-25T05:38:31.433Z,-6.10
2019-01-25T05:41:01.031Z,-6.10
2019-01-25T05:43:39.116Z,-6.10
2019-01-25T05:46:08.559Z,-6.10
2019-01-25T05:48:38.119Z,-6.10
2019-01-25T05:51:07.752Z,-6.10
2019-01-25T05:53:37.220Z,-6.10
2019-01-25T05:56:07.944Z,-6.10
2019-01-25T05:58:40.426Z,-6.10
2019-01-25T06:01:09.899Z,-6.00
2019-01-25T06:03:39.655Z,-5.90
2019-01-25T06:06:09.102Z,-6.00
2019-01-25T06:08:43.791Z,-6.00
2019-01-25T06:11:11.034Z,-6.00
2019-01-25T06:13:42.039Z,-5.90
2019-01-25T06:16:11.977Z,-5.90
2019-01-25T06:18:41.735Z,-6.00
2019-01-25T06:21:11.220Z,-6.00
2019-01-25T06:23:40.630Z,-6.00
2019-01-25T06:26:12.110Z,-6.00
2019-01-25T06:28:41.699Z,-6.10
2019-01-25T06:31:11.320Z,-6.00
2019-01-25T06:33:40.926Z,-5.90
2019-01-25T06:36:10.391Z,-5.90
2019-01-25T06:38:39.903Z,-6.00
2019-01-25T06:41:09.795Z,-6.00
2019-01-25T06:43:39.268Z,-5.90
2019-01-25T06:46:08.882Z,-6.00
2019-01-25T06:48:38.271Z,-5.90
2019-01-25T06:51:07.781Z,-6.00
2019-01-25T06:53:37.509Z,-5.90
2019-01-25T06:56:06.949Z,-5.90
2019-01-25T06:58:45.060Z,-5.90
2019-01-25T07:01:25.192Z,-5.90
2019-01-25T07:03:54.899Z,-5.90
2019-01-25T07:06:24.376Z,-5.80
2019-01-25T07:08:53.815Z,-5.80
2019-01-25T07:11:23.488Z,-5.70
2019-01-25T07:13:52.956Z,-5.70
2019-01-25T07:16:22.405Z,-5.60
2019-01-25T07:18:51.915Z,-5.60
2019-01-25T07:21:21.452Z,-5.70
2019-01-25T07:23:50.933Z,-5.60
2019-01-25T07:26:20.393Z,-5.50
2019-01-25T07:28:49.985Z,-5.50
2019-01-25T07:31:19.563Z,-5.50
2019-01-25T07:33:49.231Z,-5.30
2019-01-25T07:36:18.776Z,-5.30
2019-01-25T07:38:48.438Z,-5.30
2019-01-25T07:41:17.817Z,-5.20
2019-01-25T07:43:47.578Z,-5.20
2019-01-25T07:46:17.196Z,-5.10
2019-01-25T07:48:46.965Z,-5.10
2019-01-25T07:51:16.374Z,-5.10
2019-01-25T07:53:45.812Z,-5.00
2019-01-25T07:56:15.516Z,-5.00
2019-01-25T07:58:44.964Z,-4.90
2019-01-25T08:01:14.396Z,-4.90
2019-01-25T08:03:44.130Z,-4.70
2019-01-25T08:06:13.575Z,-4.70
2019-01-25T08:08:43.063Z,-4.70
2019-01-25T08:11:12.588Z,-4.70
2019-01-25T08:13:42.077Z,-4.80
2019-01-25T08:16:11.553Z,-4.80
2019-01-25T08:18:41.020Z,-4.80
2019-01-25T08:21:10.739Z,-4.70
2019-01-25T08:23:40.184Z,-4.70
2019-01-25T08:26:09.661Z,-4.70
2019-01-25T08:28:39.251Z,-4.60
2019-01-25T08:31:08.736Z,-4.70
2019-01-25T08:33:38.324Z,-4.80
2019-01-25T08:36:07.870Z,-4.60
2019-01-25T08:38:37.338Z,-4.70
2019-01-25T08:41:07.047Z,-4.60
2019-01-25T08:43:36.645Z,-4.60
2019-01-25T08:46:06.217Z,-4.60
2019-01-25T08:48:35.747Z,-4.40
2019-01-25T08:51:05.308Z,-4.40
2019-01-25T08:53:34.896Z,-4.50
2019-01-25T08:56:04.820Z,-4.50
2019-01-25T08:58:35.842Z,-4.50
2019-01-25T09:01:05.953Z,-4.60
2019-01-25T09:03:35.429Z,-4.50
2019-01-25T09:06:04.926Z,-4.40
2019-01-25T09:08:34.582Z,-4.50
2019-01-25T09:11:04.033Z,-4.40
2019-01-25T09:13:33.545Z,-4.50
2019-01-25T09:16:03.223Z,-4.40
2019-01-25T09:18:32.664Z,-4.50
2019-01-25T09:21:02.140Z,-4.50
2019-01-25T09:23:32.554Z,-4.70
2019-01-25T09:26:02.121Z,-4.60
2019-01-25T09:28:31.537Z,-4.70
2019-01-25T09:31:01.049Z,-4.70
2019-01-25T09:33:31.015Z,-4.60
2019-01-25T09:36:00.713Z,-4.70
2019-01-25T09:38:30.283Z,-4.50
2019-01-25T09:40:59.803Z,-4.40
2019-01-25T09:43:29.297Z,-4.20
2019-01-25T09:45:58.912Z,-4.50
2019-01-25T09:48:28.334Z,-4.30
2019-01-25T09:50:57.845Z,-4.40
2019-01-25T09:53:27.495Z,-4.40
2019-01-25T09:55:57.178Z,-4.20
2019-01-25T09:58:27.001Z,-4.50
2019-01-25T10:01:11.557Z,-4.40
2019-01-25T10:03:41.078Z,-4.30
2019-01-25T10:06:10.883Z,-4.30
2019-01-25T10:08:40.359Z,-4.30
2019-01-25T10:11:09.833Z,-4.20
2019-01-25T10:13:39.336Z,-4.30
2019-01-25T10:16:08.977Z,-4.30
2019-01-25T10:18:38.437Z,-4.40
2019-01-25T10:21:08.306Z,-4.70
2019-01-25T10:23:39.248Z,-4.70
2019-01-25T10:26:08.839Z,-4.50
2019-01-25T10:28:38.335Z,-4.30
2019-01-25T10:31:08.036Z,-4.30
2019-01-25T10:33:37.519Z,-4.30
2019-01-25T10:36:07.088Z,-4.40
2019-01-25T10:38:36.754Z,-4.40
2019-01-25T10:41:06.318Z,-4.50
2019-01-25T10:43:35.784Z,-4.40
2019-01-25T10:46:05.515Z,-4.40
2019-01-25T10:48:35.006Z,-4.40
2019-01-25T10:51:04.549Z,-4.50
2019-01-25T10:53:34.064Z,-4.50
2019-01-25T10:56:03.560Z,-4.60
2019-01-25T10:58:33.068Z,-4.60
2019-01-25T11:01:02.737Z,-4.50
2019-01-25T11:03:32.248Z,-4.40
2019-01-25T11:06:01.716Z,-4.40
2019-01-25T11:08:32.876Z,-4.60
2019-01-25T11:11:02.646Z,-4.40
2019-01-25T11:13:32.132Z,-4.40
2019-01-25T11:16:01.890Z,-4.40
2019-01-25T11:18:31.442Z,-4.50
2019-01-25T11:21:01.016Z,-4.50
2019-01-25T11:23:30.560Z,-4.30
2019-01-25T11:26:00.023Z,-4.10
2019-01-25T11:28:29.530Z,-4.40
2019-01-25T11:30:59.118Z,-4.20
2019-01-25T11:33:28.576Z,-4.30
2019-01-25T11:35:58.072Z,-4.30
2019-01-25T11:38:27.728Z,-4.40
2019-01-25T11:40:57.200Z,-4.50
2019-01-25T11:46:11.190Z,-4.50
2019-01-25T11:48:40.684Z,-4.40
2019-01-25T11:51:10.195Z,-4.40
2019-01-25T11:53:39.755Z,-4.20
2019-01-25T11:56:09.283Z,-4.20
2019-01-25T11:58:38.702Z,-4.00
2019-01-25T12:01:08.485Z,-4.10
2019-01-25T12:03:37.989Z,-3.90
2019-01-25T12:06:07.382Z,-3.70
2019-01-25T12:08:37.017Z,-3.60
2019-01-25T12:11:06.540Z,-3.50
2019-01-25T12:13:36.282Z,-3.50
2019-01-25T12:16:05.876Z,-3.90
2019-01-25T12:18:35.385Z,-3.90
2019-01-25T12:21:05.561Z,-4.10
2019-01-25T12:23:35.709Z,-4.20
2019-01-25T12:26:05.341Z,-4.10
2019-01-25T12:28:34.870Z,-4.20
2019-01-25T12:31:04.867Z,-4.20
2019-01-25T12:33:34.377Z,-4.30
2019-01-25T12:36:03.826Z,-4.20
2019-01-25T12:38:33.501Z,-4.20
2019-01-25T12:41:02.952Z,-4.20
2019-01-25T12:43:32.444Z,-4.30
2019-01-25T12:46:01.964Z,-4.20
2019-01-25T12:48:31.429Z,-4.30
2019-01-25T12:51:06.367Z,-4.10
2019-01-25T12:53:35.915Z,-4.20
2019-01-25T12:56:05.529Z,-4.30
2019-01-25T12:58:35.115Z,-4.30
2019-01-25T13:01:06.125Z,-4.30
2019-01-25T13:03:35.852Z,-4.30
2019-01-25T13:06:05.947Z,-4.10
2019-01-25T13:08:35.665Z,-4.20
2019-01-25T13:11:05.459Z,-4.30
2019-01-25T13:13:35.019Z,-4.50
2019-01-25T13:16:04.584Z,-4.60
2019-01-25T13:18:34.062Z,-4.60
2019-01-25T13:21:04.003Z,-4.70
2019-01-25T13:23:33.628Z,-4.70
2019-01-25T13:26:03.122Z,-4.80
2019-01-25T13:28:32.646Z,-4.60
2019-01-25T13:31:02.260Z,-4.50
2019-01-25T13:33:31.994Z,-4.60
2019-01-25T13:36:01.513Z,-4.70
2019-01-25T13:38:30.928Z,-4.50
2019-01-25T13:41:00.542Z,-4.50
2019-01-25T13:43:30.008Z,-4.50
2019-01-25T13:45:59.530Z,-4.50
2019-01-25T13:48:29.173Z,-4.50
2019-01-25T13:50:58.612Z,-4.60
2019-01-25T13:53:28.103Z,-4.70
2019-01-25T13:55:57.944Z,-4.70
2019-01-25T13:58:27.397Z,-4.50
2019-01-25T14:00:59.190Z,-4.60
2019-01-25T14:03:28.661Z,-4.60
2019-01-25T14:05:58.182Z,-4.80
2019-01-25T14:08:27.918Z,-4.80
2019-01-25T14:10:57.347Z,-4.90
2019-01-25T14:13:26.833Z,-5.00
2019-01-25T14:15:56.500Z,-4.90
2019-01-25T14:18:26.025Z,-5.00
2019-01-25T14:20:55.485Z,-4.90
2019-01-25T14:23:25.060Z,-5.00
2019-01-25T14:25:54.512Z,-5.00
2019-01-25T14:28:24.009Z,-5.10
2019-01-25T14:30:53.490Z,-5.00
2019-01-25T14:33:23.107Z,-5.00
2019-01-25T14:35:52.551Z,-5.10
2019-01-25T14:38:22.113Z,-5.20
2019-01-25T14:40:51.846Z,-5.30
2019-01-25T14:43:21.219Z,-5.30
2019-01-25T14:45:50.696Z,-5.40
2019-01-25T14:48:20.818Z,-5.40
2019-01-25T14:50:50.449Z,-5.40
2019-01-25T14:53:19.988Z,-5.40
2019-01-25T14:55:49.437Z,-5.30
2019-01-25T14:58:19.409Z,-5.30
2019-01-25T15:00:49.051Z,-5.20
2019-01-25T15:03:18.609Z,-5.30
2019-01-25T15:05:48.290Z,-5.30
2019-01-25T15:08:18.252Z,-5.40
2019-01-25T15:10:47.777Z,-5.40
2019-01-25T15:13:17.341Z,-5.40
2019-01-25T15:15:46.809Z,-5.40
2019-01-25T15:18:16.437Z,-5.40
2019-01-25T15:20:46.076Z,-5.50
2019-01-25T15:23:15.566Z,-5.50
2019-01-25T15:25:45.178Z,-5.40
2019-01-25T15:28:14.793Z,-5.40
2019-01-25T15:30:44.321Z,-5.40
2019-01-25T15:33:14.033Z,-5.30
2019-01-25T15:35:43.595Z,-5.40
2019-01-25T15:38:13.208Z,-5.50
2019-01-25T15:40:42.716Z,-5.40
2019-01-25T15:43:12.233Z,-5.50
2019-01-25T15:45:41.707Z,-5.60
2019-01-25T15:48:11.571Z,-5.50
2019-01-25T15:50:41.044Z,-5.50
2019-01-25T15:53:10.504Z,-5.50
2019-01-25T15:55:40.041Z,-5.50
2019-01-25T15:58:09.593Z,-5.50
2019-01-25T16:00:39.112Z,-5.50
2019-01-25T16:03:08.776Z,-5.50
2019-01-25T16:05:38.203Z,-5.50
2019-01-25T16:08:07.898Z,-5.50
2019-01-25T16:10:37.512Z,-5.40
2019-01-25T16:13:06.982Z,-5.30
2019-01-25T16:15:36.767Z,-5.40
2019-01-25T16:18:06.406Z,-5.40
2019-01-25T16:20:36.246Z,-5.40
2019-01-25T16:23:05.797Z,-5.40
2019-01-25T16:25:36.100Z,-5.40
2019-01-25T16:28:06.562Z,-5.50
2019-01-25T16:30:38.419Z,-5.40
2019-01-25T16:33:08.202Z,-5.50
2019-01-25T16:35:37.694Z,-5.50
2019-01-25T16:38:07.620Z,-5.50
2019-01-25T16:40:37.086Z,-5.50
2019-01-25T16:43:08.996Z,-5.50
2019-01-25T16:45:41.116Z,-5.50
2019-01-25T16:48:11.113Z,-5.50
2019-01-25T16:50:40.669Z,-5.50
2019-01-25T16:53:12.084Z,-5.40
2019-01-25T16:55:41.785Z,-5.40
2019-01-25T16:58:12.621Z,-5.50
2019-01-25T17:00:44.616Z,-5.50
2019-01-25T17:03:14.214Z,-5.50
2019-01-25T17:05:43.698Z,-5.40
2019-01-25T17:08:13.132Z,-5.40
2019-01-25T17:10:42.639Z,-5.40
2019-01-25T17:13:12.456Z,-5.40
2019-01-25T17:15:45.395Z,-5.50
2019-01-25T17:18:14.962Z,-5.50
2019-01-25T17:20:44.550Z,-5.40
2019-01-25T17:23:13.959Z,-5.40
2019-01-25T17:25:43.490Z,-5.40
2019-01-25T17:28:12.949Z,-5.40
2019-01-25T17:30:42.911Z,-5.50
2019-01-25T17:33:12.468Z,-5.40
2019-01-25T17:35:41.962Z,-5.40
2019-01-25T17:38:11.550Z,-5.40
2019-01-25T17:40:47.278Z,-5.40
2019-01-25T17:43:16.708Z,-5.40
2019-01-25T17:45:46.183Z,-5.50
2019-01-25T17:48:15.810Z,-5.50
2019-01-25T17:50:45.717Z,-5.40
2019-01-25T17:53:15.350Z,-5.40
2019-01-25T17:55:44.825Z,-5.40
2019-01-25T17:58:14.584Z,-5.40
2019-01-25T18:00:55.534Z,-5.40
2019-01-25T18:03:27.203Z,-5.30
2019-01-25T18:05:56.746Z,-5.30
2019-01-25T18:08:27.667Z,-5.30
2019-01-25T18:11:01.610Z,-5.40
2019-01-25T18:13:31.181Z,-5.30
2019-01-25T18:16:00.705Z,-5.30
2019-01-25T18:18:30.155Z,-5.30
2019-01-25T18:20:59.748Z,-5.20
2019-01-25T18:23:29.180Z,-5.20
2019-01-25T18:26:17.443Z,-5.30
2019-01-25T18:29:02.308Z,-5.40
2019-01-25T18:31:36.762Z,-5.30
2019-01-25T18:34:07.109Z,-5.30
2019-01-25T18:36:36.697Z,-5.30
2019-01-25T18:39:08.980Z,-5.30
2019-01-25T18:41:38.855Z,-5.30
2019-01-25T18:44:10.110Z,-5.30
2019-01-25T18:46:40.806Z,-5.20
2019-01-25T18:49:10.350Z,-5.30
2019-01-25T18:51:39.885Z,-5.30
2019-01-25T18:54:09.373Z,-5.30
2019-01-25T18:56:39.145Z,-5.30
2019-01-25T18:59:09.613Z,-5.30
2019-01-25T19:01:39.237Z,-5.30
2019-01-25T19:04:08.757Z,-5.30
2019-01-25T19:06:38.263Z,-5.40
2019-01-25T19:09:09.519Z,-5.40
2019-01-25T19:11:39.067Z,-5.30
2019-01-25T19:14:08.511Z,-5.40
2019-01-25T19:16:38.004Z,-5.30
2019-01-25T19:19:07.496Z,-5.30
2019-01-25T19:21:37.033Z,-5.40
2019-01-25T19:24:06.445Z,-5.40
2019-01-25T19:26:38.334Z,-5.40
2019-01-25T19:29:07.789Z,-5.30
2019-01-25T19:31:37.256Z,-5.40
2019-01-25T19:34:06.798Z,-5.30
2019-01-25T19:36:36.361Z,-5.40
2019-01-25T19:39:10.602Z,-5.40
2019-01-25T19:41:40.802Z,-5.40
2019-01-25T19:44:11.191Z,-5.30
2019-01-25T19:46:41.815Z,-5.40
2019-01-25T19:49:11.321Z,-5.40
2019-01-25T19:51:40.840Z,-5.30
2019-01-25T19:54:10.359Z,-5.30
2019-01-25T19:56:39.974Z,-5.30
2019-01-25T19:59:09.518Z,-5.30
2019-01-25T20:01:39.199Z,-5.40
2019-01-25T20:04:08.993Z,-5.40
2019-01-25T20:06:38.720Z,-5.40
2019-01-25T20:09:10.893Z,-5.40
2019-01-25T20:11:40.906Z,-5.20
2019-01-25T20:14:10.445Z,-5.40
2019-01-25T20:16:40.094Z,-5.40
2019-01-25T20:19:09.747Z,-5.40
2019-01-25T20:21:39.260Z,-5.30
2019-01-25T20:24:08.901Z,-5.40
2019-01-25T20:26:38.367Z,-5.40
2019-01-25T20:29:08.264Z,-5.30
2019-01-25T20:31:37.829Z,-5.30
2019-01-25T20:34:10.481Z,-5.30
2019-01-25T20:36:39.991Z,-5.40
2019-01-25T20:39:09.772Z,-5.40
2019-01-25T20:41:39.419Z,-5.30
2019-01-25T20:44:09.241Z,-5.30
2019-01-25T20:46:38.902Z,-5.30
2019-01-25T20:49:08.388Z,-5.30
2019-01-25T20:51:37.808Z,-5.30
2019-01-25T20:54:07.336Z,-5.40
2019-01-25T20:56:36.874Z,-5.30
2019-01-25T20:59:06.382Z,-5.30
2019-01-25T21:01:36.093Z,-5.30
2019-01-25T21:04:05.520Z,-5.40
2019-01-25T21:06:35.079Z,-5.30
2019-01-25T21:09:06.890Z,-5.40
2019-01-25T21:11:36.345Z,-5.40
2019-01-25T21:14:05.943Z,-5.40
2019-01-25T21:16:35.310Z,-5.40
2019-01-25T21:19:04.886Z,-5.50
2019-01-25T21:21:34.336Z,-5.40
2019-01-25T21:24:03.819Z,-5.50
2019-01-25T21:26:33.256Z,-5.50
2019-01-25T21:29:02.670Z,-5.50
2019-01-25T21:31:32.130Z,-5.60
2019-01-25T21:34:01.556Z,-5.60
2019-01-25T21:36:31.026Z,-5.60
2019-01-25T21:39:00.518Z,-5.70
2019-01-25T21:41:29.993Z,-5.80
2019-01-25T21:43:59.501Z,-5.80
2019-01-25T21:46:29.055Z,-5.80
2019-01-25T21:48:58.510Z,-5.80
2019-01-25T21:51:27.982Z,-5.90
2019-01-25T21:53:57.871Z,-5.90
2019-01-25T21:56:27.388Z,-5.90
2019-01-25T21:58:56.937Z,-6.00
2019-01-25T22:01:26.419Z,-6.00
2019-01-25T22:03:55.952Z,-6.00
2019-01-25T22:06:25.656Z,-6.20
2019-01-25T22:08:55.084Z,-6.20
2019-01-25T22:11:25.025Z,-6.20
2019-01-25T22:13:54.485Z,-6.20
2019-01-25T22:16:23.955Z,-6.20
2019-01-25T22:18:54.874Z,-6.30
2019-01-25T22:21:26.509Z,-6.40
2019-01-25T22:23:55.857Z,-6.50
2019-01-25T22:26:25.357Z,-6.40
2019-01-25T22:28:54.762Z,-6.40
2019-01-25T22:31:24.266Z,-6.40
2019-01-25T22:33:53.870Z,-6.40
2019-01-25T22:36:23.369Z,-6.50
2019-01-25T22:38:52.864Z,-6.50
2019-01-25T22:41:22.471Z,-6.50
2019-01-25T22:43:51.999Z,-6.50
2019-01-25T22:46:21.411Z,-6.50
2019-01-25T22:48:51.540Z,-6.50
2019-01-25T22:51:20.998Z,-6.60
2019-01-25T22:53:50.462Z,-6.50
2019-01-25T22:56:19.897Z,-6.60
2019-01-25T22:58:49.307Z,-6.50
2019-01-25T23:01:37.015Z,-6.60
2019-01-25T23:05:11.620Z,-6.60
2019-01-25T23:07:41.120Z,-6.60
2019-01-25T23:10:13.696Z,-6.60
2019-01-25T23:12:43.137Z,-6.70
2019-01-25T23:15:15.706Z,-6.60
2019-01-25T23:17:45.220Z,-6.60
2019-01-25T23:20:14.929Z,-6.40
2019-01-25T23:22:44.365Z,-6.50
2019-01-25T23:25:14.534Z,-6.40
2019-01-25T23:27:43.967Z,-6.40
2019-01-25T23:30:16.063Z,-6.30
2019-01-25T23:32:45.578Z,-6.30
2019-01-25T23:35:14.989Z,-6.30
2019-01-25T23:37:44.462Z,-6.30
2019-01-25T23:40:16.595Z,-6.30
2019-01-25T23:42:46.269Z,-6.20
2019-01-25T23:45:15.721Z,-6.20
2019-01-25T23:47:45.219Z,-6.20
2019-01-25T23:50:14.799Z,-6.10
2019-01-25T23:52:44.387Z,-6.20
2019-01-25T23:55:13.920Z,-6.20
2019-01-25T23:57:43.873Z,-6.20
